| time (UTC) | temp C | wind direction | speed KPH | gust KPH | rain 1hr cm | rain 24hr cm | rain mn cm | humidity % | barometer mb |
| 20260503195545 | 28 | 312 | 4.8 | 12.9 | 0.00 | 0.00 | 0.00 | 47 | 1009.6 |
| 20260503195043 | 28 | 345 | 6.4 | 12.9 | 0.00 | 0.00 | 0.00 | 50 | 1009.8 |
| 20260503194543 | 28 | 315 | 3.2 | 9.7 | 0.00 | 0.00 | 0.00 | 43 | 1009.8 |
| 20260503194041 | 27 | 307 | 6.4 | 14.5 | 0.00 | 0.00 | 0.00 | 45 | 1009.8 |
| 20260503193540 | 27 | 306 | 4.8 | 14.5 | 0.00 | 0.00 | 0.00 | 46 | 1009.9 |
| 20260503193043 | 27 | 344 | 1.6 | 8.0 | 0.00 | 0.00 | 0.00 | 45 | 1010.0 |
| 20260503192536 | 27 | 286 | 1.6 | 12.9 | 0.00 | 0.00 | 0.00 | 47 | 1010.1 |
| 20260503192035 | 27 | 22 | 3.2 | 12.9 | 0.00 | 0.00 | 0.00 | 48 | 1010.2 |
| 20260503191534 | 26 | 292 | 1.6 | 11.3 | 0.00 | 0.00 | 0.00 | 47 | 1010.2 |
| 20260503191036 | 26 | 285 | 4.8 | 11.3 | 0.00 | 0.00 | 0.00 | 49 | 1010.2 |
| 20260503190531 | 26 | 294 | 0.0 | 14.5 | 0.00 | 0.00 | 0.00 | 53 | 1010.3 |
| 20260503190032 | 26 | 308 | 4.8 | 14.5 | 0.00 | 0.00 | 0.00 | 52 | 1010.4 |
| 20260503185529 | 25 | 276 | 6.4 | 12.9 | 0.00 | 0.00 | 0.00 | 54 | 1010.4 |
| 20260503185028 | 25 | 349 | 3.2 | 12.9 | 0.00 | 0.00 | 0.00 | 57 | 1010.6 |
| 20260503184527 | 25 | 291 | 1.6 | 12.9 | 0.00 | 0.00 | 0.00 | 55 | 1010.7 |
| 20260503184025 | 25 | 283 | 1.6 | 11.3 | 0.00 | 0.00 | 0.00 | 59 | 1010.5 |
| 20260503183525 | 24 | 313 | 3.2 | 12.9 | 0.00 | 0.00 | 0.00 | 56 | 1010.6 |
| 20260503183023 | 24 | 313 | 0.0 | 12.9 | 0.00 | 0.00 | 0.00 | 59 | 1010.8 |
| 20260503182523 | 24 | 286 | 3.2 | 12.9 | 0.00 | 0.00 | 0.00 | 58 | 1010.8 |
| 20260503182021 | 24 | 313 | 1.6 | 12.9 | 0.00 | 0.00 | 0.00 | 58 | 1010.9 |
| 20260503181520 | 23 | 303 | 6.4 | 14.5 | 0.00 | 0.00 | 0.00 | 61 | 1010.8 |
| 20260503181019 | 23 | 290 | 8.0 | 14.5 | 0.00 | 0.00 | 0.00 | 62 | 1010.9 |
| 20260503180518 | 23 | 288 | 6.4 | 14.5 | 0.00 | 0.00 | 0.00 | 64 | 1010.9 |
| 20260503180019 | 23 | 299 | 6.4 | 14.5 | 0.00 | 0.00 | 0.00 | 62 | 1011.1 |
| 20260503175514 | 22 | 290 | 6.4 | 12.9 | 0.00 | 0.00 | 0.00 | 63 | 1011.1 |
| 20260503175014 | 22 | 286 | 3.2 | 11.3 | 0.00 | 0.00 | 0.00 | 64 | 1011.2 |
| 20260503174513 | 22 | 295 | 3.2 | 12.9 | 0.00 | 0.00 | 0.00 | 65 | 1011.2 |
| 20260503174012 | 22 | 304 | 6.4 | 12.9 | 0.00 | 0.00 | 0.00 | 64 | 1011.5 |
| 20260503173511 | 22 | 318 | 4.8 | 12.9 | 0.00 | 0.00 | 0.00 | 63 | 1011.3 |
| 20260503173020 | 22 | 349 | 3.2 | 8.0 | 0.00 | 0.00 | 0.00 | 62 | 1011.3 |
| 20260503172508 | 22 | 311 | 4.8 | 8.0 | 0.00 | 0.00 | 0.00 | 63 | 1011.4 |
| 20260503172007 | 22 | 310 | 4.8 | 9.7 | 0.00 | 0.00 | 0.00 | 62 | 1011.4 |
| 20260503171515 | 22 | 16 | 4.8 | 9.7 | 0.00 | 0.00 | 0.00 | 64 | 1011.5 |
| 20260503171005 | 21 | 349 | 4.8 | 8.0 | 0.00 | 0.00 | 0.00 | 65 | 1011.6 |
| 20260503170503 | 21 | 12 | 4.8 | 9.7 | 0.00 | 0.00 | 0.00 | 65 | 1011.5 |
| 20260503150534 | 12 | 226 | 0.0 | 3.2 | 0.00 | 0.00 | 0.00 | 95 | 1012.3 |
| 20260503131033 | 8 | 227 | 0.0 | 1.6 | 0.00 | 0.00 | 0.00 | 95 | 1011.8 |
| 20260503130528 | 8 | 227 | 0.0 | 3.2 | 0.00 | 0.00 | 0.00 | 94 | 1011.8 |
| 20260503110517 | 10 | 225 | 0.0 | 0.0 | 0.00 | 0.00 | 0.00 | 92 | 1012.0 |
| 20260503090502 | 12 | 215 | 0.0 | 0.0 | 0.00 | 0.00 | 0.00 | 92 | 1012.4 |
| 20260503081557 | 12 | 229 | 0.0 | 0.0 | 0.00 | 0.05 | 0.00 | 90 | 1012.2 |
| 20260503081100 | 12 | 227 | 0.0 | 0.0 | 0.00 | 0.05 | 0.00 | 90 | 1012.4 |
| 20260503080558 | 12 | 229 | 0.0 | 0.0 | 0.00 | 0.05 | 0.00 | 90 | 1012.3 |
| 20260503072550 | 12 | 211 | 0.0 | 3.2 | 0.00 | 0.05 | 0.00 | 89 | 1012.4 |
| 20260503072051 | 13 | 219 | 0.0 | 3.2 | 0.00 | 0.05 | 0.00 | 89 | 1012.4 |
| 20260503071557 | 13 | 227 | 1.6 | 3.2 | 0.00 | 0.05 | 0.00 | 89 | 1012.4 |
| 20260503071048 | 13 | 227 | 0.0 | 1.6 | 0.00 | 0.05 | 0.00 | 89 | 1012.3 |
| 20260503070548 | 13 | 216 | 0.0 | 1.6 | 0.00 | 0.05 | 0.00 | 89 | 1012.5 |
| 20260503070109 | 13 | 228 | 0.0 | 0.0 | 0.00 | 0.05 | 0.00 | 88 | 1012.4 |
| 20260503060107 | 15 | 227 | 0.0 | 4.8 | 0.00 | 0.05 | 0.05 | 85 | 1012.3 |
| 20260503055047 | 15 | 229 | 0.0 | 4.8 | 0.00 | 0.05 | 0.05 | 85 | 1012.4 |
| 20260503054545 | 15 | 229 | 1.6 | 4.8 | 0.00 | 0.05 | 0.05 | 84 | 1012.4 |
| 20260503054044 | 15 | 255 | 0.0 | 3.2 | 0.00 | 0.05 | 0.05 | 84 | 1012.2 |
| 20260503053544 | 15 | 254 | 0.0 | 6.4 | 0.00 | 0.05 | 0.05 | 83 | 1012.1 |
| 20260503053044 | 15 | 255 | 0.0 | 6.4 | 0.00 | 0.05 | 0.05 | 83 | 1012.0 |
| 20260503052542 | 15 | 254 | 1.6 | 4.8 | 0.00 | 0.05 | 0.05 | 83 | 1011.9 |
| 20260503052043 | 15 | 165 | 0.0 | 3.2 | 0.00 | 0.05 | 0.05 | 83 | 1011.9 |
| 20260503051547 | 15 | 165 | 0.0 | 3.2 | 0.00 | 0.05 | 0.05 | 82 | 1012.1 |
| 20260503051043 | 16 | 165 | 0.0 | 3.2 | 0.00 | 0.05 | 0.05 | 82 | 1012.2 |
| 20260503050543 | 16 | 163 | 1.6 | 3.2 | 0.00 | 0.05 | 0.05 | 82 | 1012.1 |
| 20260503050044 | 16 | 166 | 0.0 | 3.2 | 0.00 | 0.05 | 0.05 | 81 | 1012.2 |
| 20260503045543 | 16 | 166 | 1.6 | 4.8 | 0.00 | 0.05 | 0.05 | 81 | 1012.3 |
| 20260503045043 | 16 | 165 | 0.0 | 4.8 | 0.00 | 0.05 | 0.05 | 81 | 1012.4 |
| 20260503044544 | 16 | 166 | 0.0 | 4.8 | 0.00 | 0.05 | 0.05 | 80 | 1012.6 |
| 20260503044046 | 16 | 166 | 0.0 | 3.2 | 0.00 | 0.05 | 0.05 | 80 | 1012.5 |
| 20260503043542 | 16 | 166 | 0.0 | 0.0 | 0.00 | 0.05 | 0.05 | 79 | 1012.5 |
| 20260503043044 | 16 | 166 | 0.0 | 3.2 | 0.00 | 0.05 | 0.05 | 79 | 1012.5 |
| 20260503042541 | 16 | 166 | 0.0 | 3.2 | 0.00 | 0.05 | 0.05 | 79 | 1012.6 |
| 20260503042042 | 17 | 165 | 0.0 | 4.8 | 0.00 | 0.05 | 0.05 | 78 | 1012.7 |
| 20260503041542 | 17 | 165 | 0.0 | 8.0 | 0.00 | 0.05 | 0.05 | 78 | 1012.6 |
| 20260503041045 | 17 | 165 | 3.2 | 8.0 | 0.00 | 0.05 | 0.05 | 77 | 1012.5 |
| 20260503040541 | 17 | 163 | 0.0 | 3.2 | 0.00 | 0.05 | 0.05 | 76 | 1012.4 |
| 20260503040042 | 17 | 163 | 0.0 | 0.0 | 0.00 | 0.05 | 0.05 | 76 | 1012.4 |
| 20260503035541 | 17 | 152 | 0.0 | 3.2 | 0.00 | 0.05 | 0.05 | 76 | 1012.3 |
| 20260503035041 | 17 | 153 | 0.0 | 3.2 | 0.00 | 0.05 | 0.05 | 76 | 1012.4 |
| 20260503034540 | 17 | 165 | 0.0 | 0.0 | 0.00 | 0.05 | 0.05 | 75 | 1012.3 |
| 20260503034045 | 17 | 165 | 0.0 | 0.0 | 0.00 | 0.05 | 0.05 | 74 | 1012.2 |
| 20260503033541 | 18 | 164 | 0.0 | 0.0 | 0.00 | 0.05 | 0.05 | 74 | 1012.3 |
| 20260503033047 | 18 | 164 | 0.0 | 0.0 | 0.00 | 0.05 | 0.05 | 74 | 1012.3 |
| 20260503032540 | 18 | 164 | 0.0 | 1.6 | 0.00 | 0.05 | 0.05 | 73 | 1012.2 |
| 20260503032038 | 18 | 165 | 0.0 | 8.0 | 0.00 | 0.05 | 0.05 | 73 | 1012.2 |
| 20260503031539 | 18 | 165 | 0.0 | 9.7 | 0.00 | 0.05 | 0.05 | 72 | 1012.4 |
| 20260503031038 | 18 | 161 | 6.4 | 9.7 | 0.00 | 0.05 | 0.05 | 72 | 1012.4 |
| 20260503030536 | 18 | 184 | 3.2 | 6.4 | 0.00 | 0.05 | 0.05 | 72 | 1012.4 |
| 20260503030037 | 18 | 188 | 1.6 | 16.1 | 0.00 | 0.05 | 0.05 | 72 | 1012.1 |
| 20260503025536 | 18 | 186 | 4.8 | 16.1 | 0.00 | 0.05 | 0.05 | 71 | 1012.2 |
| 20260503025035 | 19 | 160 | 4.8 | 22.5 | 0.00 | 0.05 | 0.05 | 70 | 1012.0 |
| 20260503024535 | 19 | 152 | 12.9 | 22.5 | 0.00 | 0.05 | 0.05 | 69 | 1012.0 |
| 20260503024036 | 20 | 179 | 11.3 | 24.1 | 0.00 | 0.05 | 0.05 | 68 | 1011.9 |
| 20260503023537 | 20 | 138 | 11.3 | 20.9 | 0.00 | 0.05 | 0.05 | 67 | 1011.9 |
| 20260503023034 | 21 | 164 | 9.7 | 19.3 | 0.00 | 0.05 | 0.05 | 65 | 1011.9 |
| 20260503022534 | 21 | 156 | 9.7 | 19.3 | 0.00 | 0.05 | 0.05 | 65 | 1011.6 |
| 20260503022043 | 21 | 162 | 6.4 | 17.7 | 0.00 | 0.05 | 0.05 | 64 | 1011.7 |
| 20260503021534 | 21 | 151 | 6.4 | 12.9 | 0.00 | 0.05 | 0.05 | 65 | 1011.7 |
| 20260503021034 | 21 | 172 | 6.4 | 9.7 | 0.00 | 0.05 | 0.05 | 65 | 1011.6 |
| 20260503020534 | 21 | 186 | 4.8 | 11.3 | 0.00 | 0.05 | 0.05 | 65 | 1011.3 |
| 20260503020034 | 21 | 188 | 3.2 | 9.7 | 0.00 | 0.05 | 0.05 | 66 | 1011.2 |
| 20260503015533 | 21 | 178 | 3.2 | 6.4 | 0.00 | 0.05 | 0.05 | 67 | 1011.1 |
| 20260503015036 | 21 | 188 | 3.2 | 6.4 | 0.00 | 0.05 | 0.05 | 66 | 1011.0 |
| 20260503014533 | 21 | 198 | 1.6 | 4.8 | 0.00 | 0.05 | 0.05 | 65 | 1011.0 |
| 20260503014033 | 21 | 198 | 0.0 | 6.4 | 0.00 | 0.05 | 0.05 | 65 | 1010.8 |
| 20260503013533 | 22 | 198 | 1.6 | 6.4 | 0.00 | 0.05 | 0.05 | 64 | 1010.9 |
| 20260503013044 | 22 | 221 | 1.6 | 4.8 | 0.00 | 0.05 | 0.05 | 62 | 1011.0 |
| 20260503012533 | 22 | 281 | 1.6 | 4.8 | 0.00 | 0.05 | 0.05 | 62 | 1010.8 |
| 20260503012031 | 22 | 284 | 1.6 | 4.8 | 0.00 | 0.05 | 0.05 | 63 | 1010.9 |
| 20260503011536 | 22 | 286 | 1.6 | 4.8 | 0.00 | 0.05 | 0.05 | 62 | 1010.9 |
| 20260503011036 | 22 | 287 | 0.0 | 1.6 | 0.00 | 0.05 | 0.05 | 60 | 1010.7 |
| 20260503010531 | 22 | 287 | 0.0 | 3.2 | 0.00 | 0.05 | 0.05 | 61 | 1010.7 |
| 20260503010033 | 22 | 287 | 0.0 | 3.2 | 0.00 | 0.05 | 0.05 | 61 | 1010.9 |
| 20260503005531 | 22 | 289 | 0.0 | 3.2 | 0.00 | 0.05 | 0.05 | 60 | 1010.9 |
| 20260503005033 | 22 | 289 | 0.0 | 3.2 | 0.00 | 0.05 | 0.05 | 60 | 1010.9 |
| 20260503004533 | 22 | 289 | 0.0 | 4.8 | 0.00 | 0.05 | 0.05 | 61 | 1010.9 |
| 20260503004030 | 22 | 290 | 0.0 | 4.8 | 0.00 | 0.05 | 0.05 | 61 | 1011.0 |
| 20260503003530 | 22 | 290 | 1.6 | 4.8 | 0.00 | 0.05 | 0.05 | 60 | 1011.0 |
| 20260503003032 | 22 | 293 | 0.0 | 8.0 | 0.00 | 0.05 | 0.05 | 61 | 1011.0 |
| 20260503002529 | 22 | 294 | 0.0 | 8.0 | 0.00 | 0.05 | 0.05 | 61 | 1011.0 |
| 20260503002029 | 22 | 309 | 3.2 | 6.4 | 0.00 | 0.05 | 0.05 | 61 | 1010.9 |
| 20260503001529 | 22 | 213 | 0.0 | 4.8 | 0.00 | 0.05 | 0.05 | 60 | 1011.0 |
| 20260503001029 | 22 | 213 | 1.6 | 6.4 | 0.00 | 0.05 | 0.05 | 60 | 1011.0 |
| 20260503000528 | 22 | 195 | 1.6 | 11.3 | 0.00 | 0.05 | 0.05 | 60 | 1010.9 |
| 20260503000029 | 22 | 176 | 3.2 | 11.3 | 0.00 | 0.05 | 0.05 | 61 | 1011.0 |
| 20260502235528 | 22 | 301 | 3.2 | 14.5 | 0.00 | 0.05 | 0.05 | 60 | 1011.0 |
| 20260502235029 | 22 | 300 | 3.2 | 14.5 | 0.00 | 0.05 | 0.05 | 60 | 1011.0 |
| 20260502234526 | 22 | 238 | 0.0 | 6.4 | 0.00 | 0.05 | 0.05 | 61 | 1011.1 |
| 20260502234026 | 22 | 298 | 1.6 | 8.0 | 0.00 | 0.05 | 0.05 | 62 | 1011.2 |
| 20260502233524 | 21 | 298 | 0.0 | 11.3 | 0.00 | 0.05 | 0.05 | 61 | 1011.2 |
| 20260502233024 | 21 | 244 | 3.2 | 9.7 | 0.00 | 0.05 | 0.05 | 61 | 1011.2 |
| 20260502232524 | 21 | 197 | 3.2 | 8.0 | 0.00 | 0.05 | 0.05 | 62 | 1011.3 |
| 20260502232023 | 21 | 300 | 3.2 | 8.0 | 0.00 | 0.05 | 0.05 | 61 | 1011.3 |
| 20260502231523 | 21 | 199 | 0.0 | 6.4 | 0.00 | 0.05 | 0.05 | 61 | 1011.4 |
| 20260502231023 | 21 | 284 | 0.0 | 3.2 | 0.00 | 0.05 | 0.05 | 64 | 1011.5 |
| 20260502230522 | 21 | 313 | 0.0 | 11.3 | 0.00 | 0.05 | 0.05 | 63 | 1011.7 |
| 20260502230123 | 21 | 313 | 1.6 | 11.3 | 0.00 | 0.05 | 0.05 | 62 | 1011.5 |
| 20260502225520 | 21 | 283 | 1.6 | 11.3 | 0.00 | 0.05 | 0.05 | 61 | 1011.8 |
| 20260502225021 | 21 | 227 | 1.6 | 8.0 | 0.00 | 0.05 | 0.05 | 60 | 1011.9 |
| 20260502224521 | 21 | 254 | 1.6 | 11.3 | 0.00 | 0.05 | 0.05 | 60 | 1011.9 |
| 20260502224020 | 21 | 243 | 3.2 | 11.3 | 0.00 | 0.05 | 0.05 | 61 | 1012.0 |
| 20260502223519 | 21 | 202 | 0.0 | 8.0 | 0.00 | 0.05 | 0.05 | 63 | 1012.2 |
| 20260502223018 | 21 | 248 | 3.2 | 8.0 | 0.00 | 0.05 | 0.05 | 60 | 1012.2 |
| 20260502222518 | 21 | 316 | 0.0 | 12.9 | 0.00 | 0.05 | 0.05 | 61 | 1012.4 |
| 20260502222016 | 21 | 294 | 4.8 | 12.9 | 0.00 | 0.05 | 0.05 | 62 | 1012.4 |
| 20260502221516 | 21 | 295 | 4.8 | 12.9 | 0.00 | 0.05 | 0.05 | 64 | 1012.4 |
| 20260502221016 | 21 | 333 | 1.6 | 8.0 | 0.00 | 0.05 | 0.05 | 62 | 1012.6 |
| 20260502220514 | 21 | 338 | 1.6 | 12.9 | 0.00 | 0.05 | 0.05 | 62 | 1012.7 |
| 20260502220012 | 21 | 342 | 4.8 | 12.9 | 0.00 | 0.05 | 0.05 | 63 | 1012.7 |
| 20260502215512 | 20 | 312 | 3.2 | 9.7 | 0.00 | 0.05 | 0.05 | 63 | 1012.9 |
| 20260502215012 | 20 | 338 | 4.8 | 9.7 | 0.00 | 0.05 | 0.05 | 68 | 1012.9 |
| 20260502214511 | 20 | 331 | 0.0 | 9.7 | 0.00 | 0.05 | 0.05 | 65 | 1013.1 |
| 20260502214010 | 20 | 240 | 1.6 | 12.9 | 0.00 | 0.05 | 0.05 | 63 | 1013.1 |
| 20260502213510 | 20 | 240 | 4.8 | 12.9 | 0.00 | 0.05 | 0.05 | 62 | 1013.0 |
| 20260502213009 | 20 | 68 | 4.8 | 12.9 | 0.00 | 0.05 | 0.05 | 63 | 1013.2 |
| 20260502212508 | 20 | 346 | 4.8 | 14.5 | 0.00 | 0.05 | 0.05 | 63 | 1013.3 |
| 20260502212008 | 20 | 21 | 6.4 | 14.5 | 0.00 | 0.05 | 0.05 | 64 | 1013.4 |
| 20260502211517 | 20 | 360 | 4.8 | 14.5 | 0.00 | 0.05 | 0.05 | 64 | 1013.4 |
| 20260502211004 | 20 | 19 | 6.4 | 12.9 | 0.00 | 0.05 | 0.05 | 66 | 1013.5 |
| 20260502210503 | 20 | 300 | 1.6 | 12.9 | 0.00 | 0.05 | 0.05 | 64 | 1013.6 |
| 20260502210004 | 19 | 355 | 6.4 | 16.1 | 0.00 | 0.05 | 0.05 | 69 | 1013.8 |
| 20260502205503 | 19 | 292 | 6.4 | 16.1 | 0.00 | 0.05 | 0.05 | 66 | 1014.0 |
| 20260502205100 | 19 | 297 | 4.8 | 14.5 | 0.00 | 0.05 | 0.05 | 69 | 1014.1 |
| 20260502204559 | 18 | 291 | 4.8 | 12.9 | 0.00 | 0.05 | 0.05 | 67 | 1014.0 |
| 20260502204058 | 18 | 288 | 3.2 | 6.4 | 0.00 | 0.05 | 0.05 | 69 | 1014.1 |
| 20260502203558 | 18 | 348 | 0.0 | 6.4 | 0.00 | 0.05 | 0.05 | 69 | 1014.2 |
| 20260502203106 | 18 | 318 | 1.6 | 11.3 | 0.00 | 0.05 | 0.05 | 68 | 1014.2 |
| 20260502202554 | 17 | 294 | 3.2 | 11.3 | 0.00 | 0.05 | 0.05 | 69 | 1014.2 |
| 20260502202053 | 17 | 278 | 0.0 | 11.3 | 0.00 | 0.05 | 0.05 | 68 | 1014.3 |
| 20260502201605 | 17 | 101 | 1.6 | 6.4 | 0.00 | 0.05 | 0.05 | 70 | 1014.5 |
| 20260502201053 | 17 | 131 | 1.6 | 12.9 | 0.00 | 0.05 | 0.05 | 69 | 1014.4 |
| 20260502200552 | 17 | 242 | 8.0 | 22.5 | 0.00 | 0.05 | 0.05 | 69 | 1014.4 |
| 20260502200051 | 17 | 9 | 9.7 | 22.5 | 0.00 | 0.05 | 0.05 | 70 | 1014.5 |